sensor_id;sensor_type;location;lat;lon;timestamp;pressure;altitude;pressure_sealevel;temperature;humidity
58092;BME280;43896;48.178;11.578;2022-08-06T00:00:00;96223.19;;;20.99;72.72
58092;BME280;43896;48.178;11.578;2022-08-06T00:02:29;96238.19;;;21.00;71.94
58092;BME280;43896;48.178;11.578;2022-08-06T00:05:00;96236.97;;;20.96;72.41
58092;BME280;43896;48.178;11.578;2022-08-06T00:07:26;96259.78;;;20.98;72.91
58092;BME280;43896;48.178;11.578;2022-08-06T00:09:52;96275.81;;;20.98;73.46
58092;BME280;43896;48.178;11.578;2022-08-06T00:12:18;96273.00;;;20.80;73.43
58092;BME280;43896;48.178;11.578;2022-08-06T00:14:43;96262.97;;;20.82;74.03
58092;BME280;43896;48.178;11.578;2022-08-06T00:17:09;96258.84;;;20.79;74.34
58092;BME280;43896;48.178;11.578;2022-08-06T00:19:35;96275.81;;;20.98;73.84
58092;BME280;43896;48.178;11.578;2022-08-06T00:22:00;96262.09;;;20.88;73.99
58092;BME280;43896;48.178;11.578;2022-08-06T00:24:25;96277.09;;;20.96;73.72
58092;BME280;43896;48.178;11.578;2022-08-06T00:26:51;96268.66;;;20.92;73.82
58092;BME280;43896;48.178;11.578;2022-08-06T00:29:16;96277.91;;;20.96;74.17
58092;BME280;43896;48.178;11.578;2022-08-06T00:31:42;96273.94;;;21.06;74.54
58092;BME280;43896;48.178;11.578;2022-08-06T00:34:07;96289.34;;;21.10;74.22
58092;BME280;43896;48.178;11.578;2022-08-06T00:36:34;96278.25;;;21.07;73.80
58092;BME280;43896;48.178;11.578;2022-08-06T00:39:03;96263.75;;;20.83;74.62
58092;BME280;43896;48.178;11.578;2022-08-06T00:41:30;96270.28;;;20.93;74.66
58092;BME280;43896;48.178;11.578;2022-08-06T00:43:56;96252.31;;;20.69;74.01
58092;BME280;43896;48.178;11.578;2022-08-06T00:46:22;96267.63;;;20.87;74.53
58092;BME280;43896;48.178;11.578;2022-08-06T00:48:48;96262.09;;;20.88;74.20
58092;BME280;43896;48.178;11.578;2022-08-06T00:51:14;96251.88;;;20.78;73.93
58092;BME280;43896;48.178;11.578;2022-08-06T00:53:39;96270.75;;;20.84;74.73
58092;BME280;43896;48.178;11.578;2022-08-06T00:56:05;96259.69;;;20.73;74.29
58092;BME280;43896;48.178;11.578;2022-08-06T00:58:31;96261.75;;;20.71;74.11
58092;BME280;43896;48.178;11.578;2022-08-06T01:00:56;96283.09;;;20.78;73.81
58092;BME280;43896;48.178;11.578;2022-08-06T01:03:22;96285.38;;;20.74;73.72
58092;BME280;43896;48.178;11.578;2022-08-06T01:05:50;96281.47;;;20.77;74.50
58092;BME280;43896;48.178;11.578;2022-08-06T01:08:16;96294.22;;;20.75;74.09
58092;BME280;43896;48.178;11.578;2022-08-06T01:10:42;96297.06;;;20.87;73.81
58092;BME280;43896;48.178;11.578;2022-08-06T01:13:15;96254.38;;;20.67;74.16
58092;BME280;43896;48.178;11.578;2022-08-06T01:15:52;96264.59;;;20.76;72.92
58092;BME280;43896;48.178;11.578;2022-08-06T01:18:32;96249.84;;;20.54;72.50
58092;BME280;43896;48.178;11.578;2022-08-06T01:21:23;96249.44;;;20.57;72.38
58092;BME280;43896;48.178;11.578;2022-08-06T01:24:09;96269.56;;;20.66;72.61
58092;BME280;43896;48.178;11.578;2022-08-06T01:30:04;96263.41;;;20.59;72.93
58092;BME280;43896;48.178;11.578;2022-08-06T01:32:35;96251.31;;;20.56;72.27
58092;BME280;43896;48.178;11.578;2022-08-06T01:35:08;96241.22;;;20.58;72.48
58092;BME280;43896;48.178;11.578;2022-08-06T01:37:42;96265.06;;;20.67;72.14
58092;BME280;43896;48.178;11.578;2022-08-06T01:40:16;96257.28;;;20.52;72.75
58092;BME280;43896;48.178;11.578;2022-08-06T01:42:44;96243.72;;;20.40;73.79
58092;BME280;43896;48.178;11.578;2022-08-06T01:45:13;96249.03;;;20.53;73.80
58092;BME280;43896;48.178;11.578;2022-08-06T01:47:43;96224.19;;;20.46;73.64
58092;BME280;43896;48.178;11.578;2022-08-06T01:50:13;96233.44;;;20.50;73.45
58092;BME280;43896;48.178;11.578;2022-08-06T01:52:42;96247.59;;;20.51;72.24
58092;BME280;43896;48.178;11.578;2022-08-06T01:55:15;96249.66;;;20.55;73.02
58092;BME280;43896;48.178;11.578;2022-08-06T01:57:52;96274.94;;;20.53;71.70
58092;BME280;43896;48.178;11.578;2022-08-06T02:00:21;96263.22;;;20.47;71.52
58092;BME280;43896;48.178;11.578;2022-08-06T02:02:48;96275.75;;;20.53;72.57
58092;BME280;43896;48.178;11.578;2022-08-06T02:05:17;96262.41;;;20.47;72.77
58092;BME280;43896;48.178;11.578;2022-08-06T02:07:46;96243.94;;;20.38;73.44
58092;BME280;43896;48.178;11.578;2022-08-06T02:10:13;96244.16;;;20.37;72.09
58092;BME280;43896;48.178;11.578;2022-08-06T02:12:44;96255.88;;;20.42;72.21
58092;BME280;43896;48.178;11.578;2022-08-06T02:15:17;96258.13;;;20.39;73.75
58092;BME280;43896;48.178;11.578;2022-08-06T02:17:49;96272.91;;;20.41;73.99
58092;BME280;43896;48.178;11.578;2022-08-06T02:20:19;96263.03;;;20.49;72.98
58092;BME280;43896;48.178;11.578;2022-08-06T02:22:49;96258.94;;;20.46;73.70
58092;BME280;43896;48.178;11.578;2022-08-06T02:25:17;96248.31;;;20.19;74.93
58092;BME280;43896;48.178;11.578;2022-08-06T02:27:49;96245.22;;;20.29;74.36
58092;BME280;43896;48.178;11.578;2022-08-06T02:30:16;96262.22;;;20.48;73.25
58092;BME280;43896;48.178;11.578;2022-08-06T02:33:08;96279.66;;;20.57;73.66
58092;BME280;43896;48.178;11.578;2022-08-06T02:35:43;96280.28;;;20.59;73.40
58092;BME280;43896;48.178;11.578;2022-08-06T02:38:14;96252.16;;;20.43;73.12
58092;BME280;43896;48.178;11.578;2022-08-06T02:40:44;96263.63;;;20.51;73.65
58092;BME280;43896;48.178;11.578;2022-08-06T02:43:16;96264.69;;;20.43;74.03
58092;BME280;43896;48.178;11.578;2022-08-06T02:45:48;96275.78;;;20.40;74.08
58092;BME280;43896;48.178;11.578;2022-08-06T02:48:27;96267.59;;;20.35;74.83
58092;BME280;43896;48.178;11.578;2022-08-06T02:50:57;96259.56;;;20.35;74.37
58092;BME280;43896;48.178;11.578;2022-08-06T02:53:34;96249.28;;;20.32;74.53
58092;BME280;43896;48.178;11.578;2022-08-06T02:56:08;96246.84;;;20.30;74.37
58092;BME280;43896;48.178;11.578;2022-08-06T02:58:44;96282.75;;;20.54;74.39
58092;BME280;43896;48.178;11.578;2022-08-06T03:01:14;96266.09;;;20.46;74.81
58092;BME280;43896;48.178;11.578;2022-08-06T03:03:42;96236.56;;;20.34;74.66
58092;BME280;43896;48.178;11.578;2022-08-06T03:06:10;96257.47;;;20.50;74.46
58092;BME280;43896;48.178;11.578;2022-08-06T03:08:38;96264.69;;;20.50;75.34
58092;BME280;43896;48.178;11.578;2022-08-06T03:11:05;96243.31;;;20.43;74.29
58092;BME280;43896;48.178;11.578;2022-08-06T03:13:34;96263.47;;;20.39;75.67
58092;BME280;43896;48.178;11.578;2022-08-06T03:16:01;96273.91;;;20.47;74.76
58092;BME280;43896;48.178;11.578;2022-08-06T03:18:27;96244.59;;;20.34;74.94
58092;BME280;43896;48.178;11.578;2022-08-06T03:21:25;96274.56;;;20.42;75.35
58092;BME280;43896;48.178;11.578;2022-08-06T03:23:56;96271.91;;;20.42;76.07
58092;BME280;43896;48.178;11.578;2022-08-06T03:26:25;96246.63;;;20.32;76.25
58092;BME280;43896;48.178;11.578;2022-08-06T03:28:54;96273.91;;;20.47;76.33
58092;BME280;43896;48.178;11.578;2022-08-06T03:31:27;96283.56;;;20.61;75.95
58092;BME280;43896;48.178;11.578;2022-08-06T03:33:54;96266.56;;;20.42;76.42
58092;BME280;43896;48.178;11.578;2022-08-06T03:36:21;96251.34;;;20.43;75.92
58092;BME280;43896;48.178;11.578;2022-08-06T03:39:00;96268.75;;;20.52;75.47
58092;BME280;43896;48.178;11.578;2022-08-06T03:41:28;96258.94;;;20.46;75.18
58092;BME280;43896;48.178;11.578;2022-08-06T03:43:57;96261.81;;;20.38;76.43
58092;BME280;43896;48.178;11.578;2022-08-06T03:46:29;96274.75;;;20.54;75.57
58092;BME280;43896;48.178;11.578;2022-08-06T03:48:59;96274.56;;;20.49;75.89
58092;BME280;43896;48.178;11.578;2022-08-06T03:51:27;96305.75;;;20.69;75.20
58092;BME280;43896;48.178;11.578;2022-08-06T03:53:54;96302.69;;;20.72;75.82
58092;BME280;43896;48.178;11.578;2022-08-06T03:56:24;96281.91;;;20.54;76.09
58092;BME280;43896;48.178;11.578;2022-08-06T03:58:58;96283.38;;;20.56;76.68
58092;BME280;43896;48.178;11.578;2022-08-06T04:01:26;96294.25;;;20.61;76.40
58092;BME280;43896;48.178;11.578;2022-08-06T04:03:53;96279.91;;;20.42;76.90
58092;BME280;43896;48.178;11.578;2022-08-06T04:06:20;96274.56;;;20.42;76.67
58092;BME280;43896;48.178;11.578;2022-08-06T04:08:50;96283.00;;;20.33;77.11
58092;BME280;43896;48.178;11.578;2022-08-06T04:11:19;96306.19;;;20.46;77.40
58092;BME280;43896;48.178;11.578;2022-08-06T04:13:46;96278.47;;;20.33;77.77
58092;BME280;43896;48.178;11.578;2022-08-06T04:16:13;96309.91;;;20.45;77.88
58092;BME280;43896;48.178;11.578;2022-08-06T04:18:40;96314.25;;;20.26;78.00
58092;BME280;43896;48.178;11.578;2022-08-06T04:21:10;96321.00;;;20.48;76.82
58092;BME280;43896;48.178;11.578;2022-08-06T04:23:35;96313.41;;;20.32;77.77
58092;BME280;43896;48.178;11.578;2022-08-06T04:26:06;96330.66;;;20.42;77.88
58092;BME280;43896;48.178;11.578;2022-08-06T04:28:32;96332.09;;;20.45;78.66
58092;BME280;43896;48.178;11.578;2022-08-06T04:31:01;96323.88;;;20.40;77.38
58092;BME280;43896;48.178;11.578;2022-08-06T04:33:30;96348.13;;;20.52;77.29
58092;BME280;43896;48.178;11.578;2022-08-06T04:36:01;96350.50;;;20.93;75.20
58092;BME280;43896;48.178;11.578;2022-08-06T04:38:36;96336.72;;;20.96;74.52
58092;BME280;43896;48.178;11.578;2022-08-06T04:41:04;96352.97;;;20.95;73.95
58092;BME280;43896;48.178;11.578;2022-08-06T04:43:30;96360.03;;;20.69;73.73
58092;BME280;43896;48.178;11.578;2022-08-06T04:45:56;96356.94;;;20.46;74.16
58092;BME280;43896;48.178;11.578;2022-08-06T04:48:23;96363.75;;;20.28;75.56
58092;BME280;43896;48.178;11.578;2022-08-06T04:50:48;96370.94;;;20.28;75.27
58092;BME280;43896;48.178;11.578;2022-08-06T04:53:16;96353.06;;;19.81;76.54
58092;BME280;43896;48.178;11.578;2022-08-06T04:55:43;96358.84;;;20.05;76.13
58092;BME280;43896;48.178;11.578;2022-08-06T04:58:10;96367.03;;;19.97;76.19
58092;BME280;43896;48.178;11.578;2022-08-06T05:00:41;96369.28;;;19.86;77.45
58092;BME280;43896;48.178;11.578;2022-08-06T05:03:07;96356.94;;;19.85;76.18
58092;BME280;43896;48.178;11.578;2022-08-06T05:05:42;96371.97;;;19.86;75.94
58092;BME280;43896;48.178;11.578;2022-08-06T05:08:12;96367.84;;;19.77;75.04
58092;BME280;43896;48.178;11.578;2022-08-06T05:10:53;96377.22;;;19.73;76.83
58092;BME280;43896;48.178;11.578;2022-08-06T05:13:20;96382.56;;;19.60;76.91
58092;BME280;43896;48.178;11.578;2022-08-06T05:15:56;96392.78;;;19.43;77.20
58092;BME280;43896;48.178;11.578;2022-08-06T05:18:34;96395.47;;;19.49;76.08
58092;BME280;43896;48.178;11.578;2022-08-06T05:21:02;96381.06;;;19.44;76.50
58092;BME280;43896;48.178;11.578;2022-08-06T05:23:34;96388.69;;;19.54;75.62
58092;BME280;43896;48.178;11.578;2022-08-06T05:26:00;96394.81;;;19.47;77.70
58092;BME280;43896;48.178;11.578;2022-08-06T05:28:26;96408.81;;;19.49;76.56
58092;BME280;43896;48.178;11.578;2022-08-06T05:30:52;96409.75;;;19.35;77.64
58092;BME280;43896;48.178;11.578;2022-08-06T05:35:49;96409.47;;;19.17;77.42
58092;BME280;43896;48.178;11.578;2022-08-06T05:38:14;96408.84;;;19.15;77.93
58092;BME280;43896;48.178;11.578;2022-08-06T05:40:39;96421.88;;;19.38;76.80
58092;BME280;43896;48.178;11.578;2022-08-06T05:43:05;96425.59;;;19.43;76.40
58092;BME280;43896;48.178;11.578;2022-08-06T05:45:31;96414.97;;;19.57;75.38
58092;BME280;43896;48.178;11.578;2022-08-06T05:47:59;96432.59;;;19.51;73.72
58092;BME280;43896;48.178;11.578;2022-08-06T05:50:32;96424.97;;;19.41;72.49
58092;BME280;43896;48.178;11.578;2022-08-06T05:53:05;96441.13;;;19.26;73.27
58092;BME280;43896;48.178;11.578;2022-08-06T05:55:37;96444.16;;;19.23;75.09
58092;BME280;43896;48.178;11.578;2022-08-06T05:58:11;96441.84;;;19.07;73.00
58092;BME280;43896;48.178;11.578;2022-08-06T06:00:38;96443.19;;;18.96;75.09
58092;BME280;43896;48.178;11.578;2022-08-06T06:03:09;96458.19;;;18.97;74.70
58092;BME280;43896;48.178;11.578;2022-08-06T06:05:37;96460.00;;;18.90;74.32
58092;BME280;43896;48.178;11.578;2022-08-06T06:08:04;96463.41;;;18.84;75.14
58092;BME280;43896;48.178;11.578;2022-08-06T06:10:31;96469.31;;;18.79;76.06
58092;BME280;43896;48.178;11.578;2022-08-06T06:12:59;96470.28;;;18.71;76.24
58092;BME280;43896;48.178;11.578;2022-08-06T06:15:25;96477.38;;;18.86;74.47
58092;BME280;43896;48.178;11.578;2022-08-06T06:23:52;96489.94;;;18.92;72.65
58092;BME280;43896;48.178;11.578;2022-08-06T06:31:28;96486.06;;;18.95;74.30
58092;BME280;43896;48.178;11.578;2022-08-06T06:34:21;96489.69;;;19.15;72.51
58092;BME280;43896;48.178;11.578;2022-08-06T06:36:58;96496.72;;;19.29;70.27
58092;BME280;43896;48.178;11.578;2022-08-06T06:39:32;96502.91;;;19.37;71.33
58092;BME280;43896;48.178;11.578;2022-08-06T06:42:06;96495.38;;;19.47;70.79
58092;BME280;43896;48.178;11.578;2022-08-06T06:47:19;96508.31;;;19.92;69.29
58092;BME280;43896;48.178;11.578;2022-08-06T06:49:51;96500.94;;;20.00;68.11
58092;BME280;43896;48.178;11.578;2022-08-06T06:52:26;96511.66;;;20.07;67.77
58092;BME280;43896;48.178;11.578;2022-08-06T06:54:59;96500.13;;;20.00;67.88
58092;BME280;43896;48.178;11.578;2022-08-06T06:57:31;96509.94;;;19.86;69.06
58092;BME280;43896;48.178;11.578;2022-08-06T07:00:01;96512.38;;;19.81;67.92
58092;BME280;43896;48.178;11.578;2022-08-06T07:02:30;96512.81;;;19.84;69.36
58092;BME280;43896;48.178;11.578;2022-08-06T07:04:56;96521.31;;;20.21;68.28
58092;BME280;43896;48.178;11.578;2022-08-06T07:07:23;96515.97;;;20.08;67.05
58092;BME280;43896;48.178;11.578;2022-08-06T07:09:49;96517.78;;;20.01;67.38
58092;BME280;43896;48.178;11.578;2022-08-06T07:12:18;96517.38;;;20.04;68.03
58092;BME280;43896;48.178;11.578;2022-08-06T07:14:46;96518.44;;;20.10;67.14
58092;BME280;43896;48.178;11.578;2022-08-06T07:17:12;96521.28;;;19.95;67.00
58092;BME280;43896;48.178;11.578;2022-08-06T07:19:38;96515.28;;;19.86;68.42
58092;BME280;43896;48.178;11.578;2022-08-06T07:22:05;96515.69;;;19.83;69.26
58092;BME280;43896;48.178;11.578;2022-08-06T07:24:33;96516.13;;;19.93;68.60
58092;BME280;43896;48.178;11.578;2022-08-06T07:27:01;96515.13;;;19.94;68.35
58092;BME280;43896;48.178;11.578;2022-08-06T07:29:28;96513.88;;;19.97;67.84
58092;BME280;43896;48.178;11.578;2022-08-06T07:31:55;96523.53;;;19.98;68.51
58092;BME280;43896;48.178;11.578;2022-08-06T07:34:22;96521.28;;;19.95;68.00
58092;BME280;43896;48.178;11.578;2022-08-06T07:36:54;96526.22;;;19.98;68.04
58092;BME280;43896;48.178;11.578;2022-08-06T07:39:33;96527.28;;;20.17;68.26
58092;BME280;43896;48.178;11.578;2022-08-06T07:42:01;96536.34;;;20.29;67.28
58092;BME280;43896;48.178;11.578;2022-08-06T07:44:27;96524.66;;;20.23;66.77
58092;BME280;43896;48.178;11.578;2022-08-06T07:46:58;96524.84;;;20.22;66.31
58092;BME280;43896;48.178;11.578;2022-08-06T07:49:25;96541.28;;;20.26;66.98
58092;BME280;43896;48.178;11.578;2022-08-06T07:51:55;96543.72;;;20.14;66.94
58092;BME280;43896;48.178;11.578;2022-08-06T07:54:23;96535.47;;;20.09;67.29
58092;BME280;43896;48.178;11.578;2022-08-06T07:56:50;96531.31;;;19.93;67.27
58092;BME280;43896;48.178;11.578;2022-08-06T07:59:16;96552.56;;;20.21;66.33
58092;BME280;43896;48.178;11.578;2022-08-06T08:01:43;96525.78;;;19.94;67.58
58092;BME280;43896;48.178;11.578;2022-08-06T08:04:09;96558.91;;;20.13;67.40
58092;BME280;43896;48.178;11.578;2022-08-06T08:06:54;96535.44;;;19.95;66.68
58092;BME280;43896;48.178;11.578;2022-08-06T08:09:22;96544.06;;;19.97;67.10
58092;BME280;43896;48.178;11.578;2022-08-06T08:11:49;96560.56;;;20.14;67.30
58092;BME280;43896;48.178;11.578;2022-08-06T08:14:19;96552.13;;;20.11;66.38
58092;BME280;43896;48.178;11.578;2022-08-06T08:16:46;96568.69;;;19.58;69.00
58092;BME280;43896;48.178;11.578;2022-08-06T08:19:28;96561.31;;;19.25;70.16
58092;BME280;43896;48.178;11.578;2022-08-06T08:21:57;96556.03;;;19.03;71.57
58092;BME280;43896;48.178;11.578;2022-08-06T08:24:50;96564.06;;;18.60;72.23
58092;BME280;43896;48.178;11.578;2022-08-06T08:27:54;96555.41;;;18.58;72.74
58092;BME280;43896;48.178;11.578;2022-08-06T08:30:20;96529.22;;;18.40;74.89
58092;BME280;43896;48.178;11.578;2022-08-06T08:33:02;96551.34;;;18.41;73.82
58092;BME280;43896;48.178;11.578;2022-08-06T08:38:44;96556.53;;;18.27;75.16
58092;BME280;43896;48.178;11.578;2022-08-06T08:41:19;96556.88;;;18.17;75.21
58092;BME280;43896;48.178;11.578;2022-08-06T08:44:09;96573.38;;;18.28;75.03
58092;BME280;43896;48.178;11.578;2022-08-06T08:46:51;96564.22;;;18.15;75.45
58092;BME280;43896;48.178;11.578;2022-08-06T08:51:59;96546.31;;;18.09;75.13
58092;BME280;43896;48.178;11.578;2022-08-06T08:54:26;96576.09;;;18.34;75.43
58092;BME280;43896;48.178;11.578;2022-08-06T08:56:52;96564.34;;;18.29;75.31
58092;BME280;43896;48.178;11.578;2022-08-06T08:59:18;96565.38;;;17.91;76.37
58092;BME280;43896;48.178;11.578;2022-08-06T09:01:45;96563.88;;;18.04;75.49
58092;BME280;43896;48.178;11.578;2022-08-06T09:04:10;96573.72;;;18.25;75.47
58092;BME280;43896;48.178;11.578;2022-08-06T09:06:36;96569.75;;;18.35;75.74
58092;BME280;43896;48.178;11.578;2022-08-06T09:09:03;96564.75;;;18.47;75.72
58092;BME280;43896;48.178;11.578;2022-08-06T09:11:30;96582.75;;;18.45;74.75
58092;BME280;43896;48.178;11.578;2022-08-06T09:13:59;96577.88;;;18.49;73.98
58092;BME280;43896;48.178;11.578;2022-08-06T09:16:24;96594.94;;;18.18;75.47
58092;BME280;43896;48.178;11.578;2022-08-06T09:18:50;96590.94;;;18.07;76.15
58092;BME280;43896;48.178;11.578;2022-08-06T09:21:16;96585.00;;;18.27;74.50
58092;BME280;43896;48.178;11.578;2022-08-06T09:23:41;96600.31;;;18.40;75.16
58092;BME280;43896;48.178;11.578;2022-08-06T09:26:07;96595.13;;;18.16;74.65
58092;BME280;43896;48.178;11.578;2022-08-06T09:28:38;96610.44;;;18.29;76.76
58092;BME280;43896;48.178;11.578;2022-08-06T09:34:01;96600.44;;;18.31;75.89
58092;BME280;43896;48.178;11.578;2022-08-06T09:36:26;96622.25;;;18.05;75.93
58092;BME280;43896;48.178;11.578;2022-08-06T09:38:59;96622.88;;;18.07;75.55
58092;BME280;43896;48.178;11.578;2022-08-06T09:41:27;96593.34;;;18.02;76.19
58092;BME280;43896;48.178;11.578;2022-08-06T09:43:56;96604.88;;;18.09;75.97
58092;BME280;43896;48.178;11.578;2022-08-06T09:49:44;96618.84;;;19.41;74.32
58092;BME280;43896;48.178;11.578;2022-08-06T09:52:25;96620.94;;;19.74;71.86
58092;BME280;43896;48.178;11.578;2022-08-06T09:54:56;96622.97;;;20.07;69.90
58092;BME280;43896;48.178;11.578;2022-08-06T09:58:04;96614.78;;;20.08;69.14
58092;BME280;43896;48.178;11.578;2022-08-06T10:00:38;96600.19;;;20.11;68.26
58092;BME280;43896;48.178;11.578;2022-08-06T10:03:16;96600.81;;;20.13;68.81
58092;BME280;43896;48.178;11.578;2022-08-06T10:06:01;96614.84;;;20.35;67.98
58092;BME280;43896;48.178;11.578;2022-08-06T10:08:27;96617.31;;;20.30;67.75
58092;BME280;43896;48.178;11.578;2022-08-06T10:10:55;96600.03;;;20.19;67.77
58092;BME280;43896;48.178;11.578;2022-08-06T10:13:26;96610.56;;;20.34;67.67
58092;BME280;43896;48.178;11.578;2022-08-06T10:16:17;96611.19;;;20.36;68.65
58092;BME280;43896;48.178;11.578;2022-08-06T10:18:47;96588.75;;;20.23;68.35
58092;BME280;43896;48.178;11.578;2022-08-06T10:21:18;96613.28;;;20.54;68.33
58092;BME280;43896;48.178;11.578;2022-08-06T10:23:49;96604.41;;;20.40;67.96
58092;BME280;43896;48.178;11.578;2022-08-06T10:26:17;96615.72;;;20.49;67.55
58092;BME280;43896;48.178;11.578;2022-08-06T10:28:45;96591.66;;;20.49;67.41
58092;BME280;43896;48.178;11.578;2022-08-06T10:31:20;96620.13;;;20.63;68.00
58092;BME280;43896;48.178;11.578;2022-08-06T10:34:02;96607.50;;;20.50;68.58
58092;BME280;43896;48.178;11.578;2022-08-06T10:36:40;96625.25;;;20.65;68.38
58092;BME280;43896;48.178;11.578;2022-08-06T10:39:06;96609.59;;;20.61;68.00
58092;BME280;43896;48.178;11.578;2022-08-06T10:41:33;96621.31;;;20.60;68.52
58092;BME280;43896;48.178;11.578;2022-08-06T10:44:01;96621.38;;;20.81;67.62
58092;BME280;43896;48.178;11.578;2022-08-06T10:46:27;96608.63;;;20.76;66.59
58092;BME280;43896;48.178;11.578;2022-08-06T10:48:53;96608.84;;;20.81;67.09
58092;BME280;43896;48.178;11.578;2022-08-06T10:51:19;96618.53;;;20.89;66.75
58092;BME280;43896;48.178;11.578;2022-08-06T10:53:45;96607.19;;;20.93;66.47
58092;BME280;43896;48.178;11.578;2022-08-06T10:56:13;96611.31;;;20.89;66.74
58092;BME280;43896;48.178;11.578;2022-08-06T10:58:39;96616.66;;;20.89;66.14
58092;BME280;43896;48.178;11.578;2022-08-06T11:01:08;96623.03;;;20.95;67.20
58092;BME280;43896;48.178;11.578;2022-08-06T11:03:39;96622.44;;;21.06;67.21
58092;BME280;43896;48.178;11.578;2022-08-06T11:06:48;96617.88;;;20.93;66.54
58092;BME280;43896;48.178;11.578;2022-08-06T11:09:45;96609.44;;;20.90;66.26
58092;BME280;43896;48.178;11.578;2022-08-06T11:14:55;96605.16;;;20.82;66.36
58092;BME280;43896;48.178;11.578;2022-08-06T11:17:20;96593.63;;;20.88;67.10
58092;BME280;43896;48.178;11.578;2022-08-06T11:19:47;96588.47;;;20.93;64.58
58092;BME280;43896;48.178;11.578;2022-08-06T11:22:38;96608.84;;;21.21;65.90
58092;BME280;43896;48.178;11.578;2022-08-06T11:25:07;96600.22;;;21.26;63.76
58092;BME280;43896;48.178;11.578;2022-08-06T11:27:53;96612.31;;;21.35;64.29
58092;BME280;43896;48.178;11.578;2022-08-06T11:30:35;96595.66;;;21.26;65.53
58092;BME280;43896;48.178;11.578;2022-08-06T11:33:00;96594.44;;;21.42;64.39
58092;BME280;43896;48.178;11.578;2022-08-06T11:38:02;96586.41;;;21.49;64.42
58092;BME280;43896;48.178;11.578;2022-08-06T11:41:00;96572.59;;;21.45;64.39
58092;BME280;43896;48.178;11.578;2022-08-06T11:51:55;96594.81;;;21.59;63.66
58092;BME280;43896;48.178;11.578;2022-08-06T11:54:24;96581.47;;;21.46;64.14
58092;BME280;43896;48.178;11.578;2022-08-06T11:59:37;96594.25;;;21.37;63.97
58092;BME280;43896;48.178;11.578;2022-08-06T12:02:05;96578.81;;;21.19;64.17
58092;BME280;43896;48.178;11.578;2022-08-06T12:12:39;96592.59;;;21.56;63.93
58092;BME280;43896;48.178;11.578;2022-08-06T12:17:33;96577.34;;;21.57;62.42
58092;BME280;43896;48.178;11.578;2022-08-06T12:22:35;96578.81;;;21.52;63.18
58092;BME280;43896;48.178;11.578;2022-08-06T12:25:04;96568.09;;;21.52;63.29
58092;BME280;43896;48.178;11.578;2022-08-06T12:27:34;96592.59;;;21.56;62.30
58092;BME280;43896;48.178;11.578;2022-08-06T12:30:01;96593.00;;;21.53;62.82
58092;BME280;43896;48.178;11.578;2022-08-06T12:32:29;96577.53;;;21.62;62.14
58092;BME280;43896;48.178;11.578;2022-08-06T12:34:57;96587.16;;;21.76;61.39
58092;BME280;43896;48.178;11.578;2022-08-06T12:37:37;96580.38;;;21.87;61.99
58092;BME280;43896;48.178;11.578;2022-08-06T12:40:07;96577.81;;;21.99;61.19
58092;BME280;43896;48.178;11.578;2022-08-06T12:42:53;96579.03;;;22.09;60.70
58092;BME280;43896;48.178;11.578;2022-08-06T12:45:22;96574.94;;;22.00;60.38
58092;BME280;43896;48.178;11.578;2022-08-06T12:48:01;96581.94;;;22.08;60.42
58092;BME280;43896;48.178;11.578;2022-08-06T12:50:28;96584.81;;;22.06;60.99
58092;BME280;43896;48.178;11.578;2022-08-06T12:53:04;96579.69;;;21.98;59.84
58092;BME280;43896;48.178;11.578;2022-08-06T12:55:31;96576.84;;;21.86;61.35
58092;BME280;43896;48.178;11.578;2022-08-06T12:57:59;96577.94;;;21.72;60.94
58092;BME280;43896;48.178;11.578;2022-08-06T13:00:25;96561.06;;;21.71;60.50
58092;BME280;43896;48.178;11.578;2022-08-06T13:02:51;96573.16;;;21.81;61.12
58092;BME280;43896;48.178;11.578;2022-08-06T13:05:17;96574.56;;;21.90;60.99
58092;BME280;43896;48.178;11.578;2022-08-06T13:07:43;96565.88;;;22.01;61.31
58092;BME280;43896;48.178;11.578;2022-08-06T13:10:10;96570.44;;;21.94;60.27
58092;BME280;43896;48.178;11.578;2022-08-06T13:12:36;96571.66;;;21.91;59.97
58092;BME280;43896;48.178;11.578;2022-08-06T13:15:11;96561.81;;;21.92;61.10
58092;BME280;43896;48.178;11.578;2022-08-06T13:17:36;96565.66;;;22.03;60.85
58092;BME280;43896;48.178;11.578;2022-08-06T13:20:02;96569.56;;;22.00;60.66
58092;BME280;43896;48.178;11.578;2022-08-06T13:22:27;96568.38;;;21.96;59.04
58092;BME280;43896;48.178;11.578;2022-08-06T13:25:15;96578.28;;;21.89;60.26
58092;BME280;43896;48.178;11.578;2022-08-06T13:27:45;96579.72;;;21.85;60.24
58092;BME280;43896;48.178;11.578;2022-08-06T13:30:11;96572.78;;;21.70;61.43
58092;BME280;43896;48.178;11.578;2022-08-06T13:32:37;96564.72;;;21.84;61.13
58092;BME280;43896;48.178;11.578;2022-08-06T13:35:07;96563.09;;;21.69;61.71
58092;BME280;43896;48.178;11.578;2022-08-06T13:37:51;96575.19;;;21.92;61.55
58092;BME280;43896;48.178;11.578;2022-08-06T13:40:18;96566.06;;;22.06;60.16
58092;BME280;43896;48.178;11.578;2022-08-06T13:45:24;96581.38;;;21.92;60.24
58092;BME280;43896;48.178;11.578;2022-08-06T13:48:00;96570.81;;;22.04;60.36
58092;BME280;43896;48.178;11.578;2022-08-06T13:50:26;96566.47;;;22.10;59.34
58092;BME280;43896;48.178;11.578;2022-08-06T13:53:01;96556.56;;;22.04;59.38
58092;BME280;43896;48.178;11.578;2022-08-06T13:55:26;96559.50;;;22.02;59.06
58092;BME280;43896;48.178;11.578;2022-08-06T13:57:53;96561.16;;;21.90;58.66
58092;BME280;43896;48.178;11.578;2022-08-06T14:00:19;96559.91;;;22.06;58.59
58092;BME280;43896;48.178;11.578;2022-08-06T14:02:44;96576.94;;;22.18;57.67
58092;BME280;43896;48.178;11.578;2022-08-06T14:05:09;96563.38;;;22.06;58.52
58092;BME280;43896;48.178;11.578;2022-08-06T14:07:35;96572.78;;;22.29;57.95
58092;BME280;43896;48.178;11.578;2022-08-06T14:10:00;96555.28;;;22.20;58.52